createdAt,value
2019-02-18T00:01:54.924Z,51.41
2019-02-18T00:04:27.184Z,51.51
2019-02-18T00:07:00.076Z,51.58
2019-02-18T00:09:31.954Z,51.63
2019-02-18T00:12:05.127Z,51.67
2019-02-18T00:14:36.770Z,51.71
2019-02-18T00:17:08.740Z,51.73
2019-02-18T00:19:40.342Z,51.76
2019-02-18T00:22:12.075Z,51.81
2019-02-18T00:24:43.851Z,51.84
2019-02-18T00:27:15.609Z,51.90
2019-02-18T00:29:47.217Z,51.92
2019-02-18T00:32:18.889Z,51.91
2019-02-18T00:34:50.869Z,51.88
2019-02-18T00:37:24.694Z,51.83
2019-02-18T00:39:56.052Z,51.75
2019-02-18T00:42:27.907Z,51.74
2019-02-18T00:44:59.541Z,51.74
2019-02-18T00:47:31.155Z,51.77
2019-02-18T00:50:02.889Z,51.74
2019-02-18T00:52:34.534Z,51.70
2019-02-18T00:55:07.574Z,51.80
2019-02-18T00:57:39.470Z,51.85
2019-02-18T01:00:13.846Z,51.84
2019-02-18T01:02:46.878Z,51.81
2019-02-18T01:05:18.618Z,51.81
2019-02-18T01:07:50.259Z,51.87
2019-02-18T01:10:22.169Z,51.89
2019-02-18T01:12:54.188Z,51.94
2019-02-18T01:15:25.799Z,52.02
2019-02-18T01:17:57.442Z,52.15
2019-02-18T01:20:29.071Z,52.23
2019-02-18T01:23:00.681Z,52.31
2019-02-18T01:25:32.268Z,52.37
2019-02-18T01:28:04.152Z,52.43
2019-02-18T01:30:35.754Z,52.46
2019-02-18T01:33:07.417Z,52.44
2019-02-18T01:35:39.034Z,52.40
2019-02-18T01:38:10.651Z,52.37
2019-02-18T01:40:43.377Z,52.36
2019-02-18T01:43:15.072Z,52.34
2019-02-18T01:45:46.955Z,52.38
2019-02-18T01:48:18.724Z,52.43
2019-02-18T01:50:50.499Z,52.56
2019-02-18T01:53:22.446Z,52.65
2019-02-18T01:55:54.039Z,52.75
2019-02-18T01:58:25.920Z,52.78
2019-02-18T02:00:57.650Z,52.87
2019-02-18T02:03:29.498Z,52.92
2019-02-18T02:06:01.342Z,52.90
2019-02-18T02:08:33.274Z,52.87
2019-02-18T02:11:05.071Z,52.88
2019-02-18T02:13:37.991Z,52.89
2019-02-18T02:16:12.384Z,52.92
2019-02-18T02:18:44.224Z,52.90
2019-02-18T02:21:16.237Z,52.87
2019-02-18T02:23:48.019Z,52.89
2019-02-18T02:26:20.827Z,52.90
2019-02-18T02:28:53.572Z,52.91
2019-02-18T02:31:25.750Z,52.98
2019-02-18T02:33:57.325Z,53.02
2019-02-18T02:36:29.282Z,53.12
2019-02-18T02:39:00.997Z,53.17
2019-02-18T02:41:32.726Z,53.19
2019-02-18T02:44:04.419Z,53.22
2019-02-18T02:46:36.028Z,53.18
2019-02-18T02:49:08.759Z,53.18
2019-02-18T02:51:40.478Z,53.21
2019-02-18T02:54:12.208Z,53.24
2019-02-18T02:56:43.904Z,53.28
2019-02-18T02:59:15.667Z,53.34
2019-02-18T03:01:47.554Z,53.41
2019-02-18T03:04:19.184Z,53.48
2019-02-18T03:06:50.965Z,53.51
2019-02-18T03:09:22.617Z,53.50
2019-02-18T03:11:54.373Z,53.51
2019-02-18T03:14:26.485Z,53.52
2019-02-18T03:16:58.396Z,53.56
2019-02-18T03:19:30.059Z,53.60
2019-02-18T03:22:02.075Z,53.61
2019-02-18T03:24:33.953Z,53.64
2019-02-18T03:27:07.165Z,53.66
2019-02-18T03:30:58.677Z,53.65
2019-02-18T03:33:39.002Z,53.61
2019-02-18T03:36:10.644Z,53.41
2019-02-18T03:38:42.545Z,53.45
2019-02-18T03:41:14.134Z,53.55
2019-02-18T03:43:46.995Z,53.62
2019-02-18T03:46:18.601Z,53.69
2019-02-18T03:48:50.289Z,53.84
2019-02-18T03:51:21.910Z,53.92
2019-02-18T03:53:53.711Z,53.95
2019-02-18T03:56:25.338Z,53.90
2019-02-18T03:58:57.013Z,53.84
2019-02-18T04:01:28.867Z,53.77
2019-02-18T04:04:00.502Z,53.70
2019-02-18T04:06:32.261Z,53.71
2019-02-18T04:09:04.929Z,53.73
2019-02-18T04:11:36.542Z,53.74
2019-02-18T04:14:08.543Z,53.81
2019-02-18T04:16:40.239Z,53.90
2019-02-18T04:19:11.962Z,53.98
2019-02-18T04:21:43.655Z,54.08
2019-02-18T04:24:15.356Z,54.17
2019-02-18T04:26:47.298Z,54.22
2019-02-18T04:29:18.985Z,54.30
2019-02-18T04:31:50.729Z,54.33
2019-02-18T04:34:22.385Z,54.28
2019-02-18T04:36:54.019Z,54.21
2019-02-18T04:39:25.871Z,54.19
2019-02-18T04:41:57.583Z,54.16
2019-02-18T04:44:29.457Z,54.20
2019-02-18T04:47:01.253Z,54.25
2019-02-18T04:49:33.096Z,54.26
2019-02-18T04:52:04.794Z,54.28
2019-02-18T04:54:36.575Z,54.29
2019-02-18T04:57:08.343Z,54.28
2019-02-18T04:59:40.097Z,54.25
2019-02-18T05:02:11.883Z,54.20
2019-02-18T05:04:43.608Z,54.14
2019-02-18T05:07:15.275Z,54.14
2019-02-18T05:09:47.199Z,54.19
2019-02-18T05:12:19.097Z,54.28
2019-02-18T05:14:50.851Z,54.39
2019-02-18T05:17:22.574Z,54.48
2019-02-18T05:19:54.191Z,54.54
2019-02-18T05:22:27.370Z,54.58
2019-02-18T05:24:59.015Z,54.67
2019-02-18T05:27:33.533Z,54.70
2019-02-18T05:30:05.740Z,54.72
2019-02-18T05:32:37.384Z,54.71
2019-02-18T05:35:09.109Z,54.68
2019-02-18T05:37:40.756Z,54.65
2019-02-18T05:40:16.823Z,54.70
2019-02-18T05:42:47.524Z,54.71
2019-02-18T05:45:19.181Z,54.75
2019-02-18T05:47:50.809Z,54.77
2019-02-18T05:50:22.423Z,54.82
2019-02-18T05:52:54.051Z,54.81
2019-02-18T05:55:25.776Z,54.83
2019-02-18T05:57:57.555Z,54.80
2019-02-18T06:00:29.637Z,54.80
2019-02-18T06:03:01.275Z,54.75
2019-02-18T06:05:32.903Z,54.76
2019-02-18T06:08:04.561Z,54.72
2019-02-18T06:10:36.211Z,54.70
2019-02-18T06:13:07.950Z,54.72
2019-02-18T06:15:39.600Z,54.77
2019-02-18T06:18:10.198Z,54.80
2019-02-18T06:20:39.400Z,54.81
2019-02-18T06:23:11.052Z,54.80
2019-02-18T06:25:42.715Z,54.76
2019-02-18T06:28:14.757Z,54.72
2019-02-18T06:30:47.406Z,54.71
2019-02-18T06:33:19.120Z,54.69
2019-02-18T06:35:51.382Z,54.68
2019-02-18T06:38:23.439Z,54.64
2019-02-18T06:40:55.037Z,54.69
2019-02-18T06:43:26.851Z,54.70
2019-02-18T06:46:24.590Z,54.71
2019-02-18T06:49:02.715Z,54.69
2019-02-18T06:51:34.444Z,54.65
2019-02-18T06:54:06.105Z,54.64
2019-02-18T06:56:55.883Z,54.69
2019-02-18T06:59:31.804Z,54.77
2019-02-18T07:02:22.312Z,54.84
2019-02-18T07:05:00.318Z,54.95
2019-02-18T07:07:50.139Z,55.00
2019-02-18T07:10:40.717Z,55.07
2019-02-18T07:13:12.544Z,55.12
2019-02-18T07:15:44.399Z,55.16
2019-02-18T07:18:16.274Z,55.21
2019-02-18T07:20:48.018Z,55.23
2019-02-18T07:23:19.719Z,55.35
2019-02-18T07:25:51.384Z,55.32
2019-02-18T07:28:23.244Z,55.37
2019-02-18T07:30:55.039Z,55.39
2019-02-18T07:33:26.796Z,55.38
2019-02-18T07:35:58.487Z,55.36
2019-02-18T07:38:30.138Z,55.35
2019-02-18T07:41:03.136Z,55.41
2019-02-18T07:43:34.900Z,55.35
2019-02-18T07:46:06.929Z,55.37
2019-02-18T07:48:38.678Z,55.37
2019-02-18T07:51:10.319Z,55.42
2019-02-18T07:53:41.979Z,55.44
2019-02-18T07:56:13.736Z,55.44
2019-02-18T07:58:45.403Z,55.54
2019-02-18T08:01:17.212Z,55.67
2019-02-18T08:03:49.093Z,55.69
2019-02-18T08:06:20.756Z,55.63
2019-02-18T08:08:52.398Z,55.58
2019-02-18T08:11:24.153Z,55.55
2019-02-18T08:13:56.185Z,55.55
2019-02-18T08:16:28.111Z,55.54
2019-02-18T08:18:59.932Z,55.50
2019-02-18T08:21:31.590Z,55.48
2019-02-18T08:24:03.310Z,55.38
2019-02-18T08:26:35.048Z,55.33
2019-02-18T08:29:06.711Z,55.30
2019-02-18T08:31:38.686Z,55.27
2019-02-18T08:34:10.336Z,55.29
2019-02-18T08:36:42.036Z,55.27
2019-02-18T08:39:13.665Z,55.25
2019-02-18T08:41:45.308Z,55.21
2019-02-18T08:44:17.044Z,55.21
2019-02-18T08:46:48.680Z,55.19
2019-02-18T08:49:20.551Z,55.20
2019-02-18T08:51:52.387Z,55.18
2019-02-18T08:54:24.058Z,55.15
2019-02-18T08:56:55.646Z,55.10
2019-02-18T08:59:27.317Z,55.06
2019-02-18T09:01:59.238Z,55.03
2019-02-18T09:04:31.036Z,54.97
2019-02-18T09:07:02.862Z,54.92
2019-02-18T09:09:34.489Z,54.88
2019-02-18T09:12:06.113Z,54.88
2019-02-18T09:14:37.820Z,54.83
2019-02-18T09:17:09.612Z,54.81
2019-02-18T09:19:41.376Z,54.77
2019-02-18T09:22:31.014Z,54.68
2019-02-18T09:25:08.440Z,54.55
2019-02-18T09:27:40.514Z,54.40
2019-02-18T09:30:15.251Z,54.29
2019-02-18T09:32:47.911Z,54.22
2019-02-18T09:35:19.596Z,54.11
2019-02-18T09:37:51.211Z,54.00
2019-02-18T09:40:23.084Z,53.89
2019-02-18T09:42:54.833Z,53.75
2019-02-18T09:45:26.493Z,53.61
2019-02-18T09:47:58.290Z,53.50
2019-02-18T09:50:29.915Z,53.34
2019-02-18T09:53:02.512Z,53.13
2019-02-18T09:55:34.453Z,53.00
2019-02-18T09:58:06.890Z,52.89
2019-02-18T10:00:39.625Z,52.78
2019-02-18T10:03:11.268Z,52.66
2019-02-18T10:05:43.249Z,52.54
2019-02-18T10:08:14.933Z,52.42
2019-02-18T10:10:55.427Z,52.24
2019-02-18T10:13:21.555Z,52.11
2019-02-18T10:15:53.219Z,52.02
2019-02-18T10:18:25.035Z,51.88
2019-02-18T10:20:56.702Z,51.75
2019-02-18T10:23:28.424Z,51.63
2019-02-18T10:26:00.767Z,51.54
2019-02-18T10:28:32.664Z,51.41
2019-02-18T10:31:04.366Z,51.28
2019-02-18T10:33:36.025Z,51.17
2019-02-18T10:36:07.675Z,51.04
2019-02-18T10:38:40.285Z,50.95
2019-02-18T10:41:12.443Z,50.79
2019-02-18T10:43:44.513Z,50.71
2019-02-18T10:46:16.134Z,50.68
2019-02-18T10:48:49.391Z,50.61
2019-02-18T10:51:21.204Z,50.52
2019-02-18T10:53:52.935Z,50.42
2019-02-18T10:56:24.589Z,50.26
2019-02-18T10:58:56.918Z,50.19
2019-02-18T11:01:28.609Z,50.12
2019-02-18T11:04:00.234Z,49.97
2019-02-18T11:06:31.850Z,49.89
2019-02-18T11:09:04.066Z,49.77
2019-02-18T11:11:37.486Z,49.75
2019-02-18T11:14:09.775Z,49.60
2019-02-18T11:16:41.778Z,49.62
2019-02-18T11:19:13.653Z,49.38
2019-02-18T11:21:45.607Z,49.16
2019-02-18T11:24:17.330Z,48.89
2019-02-18T11:26:49.018Z,48.85
2019-02-18T11:29:21.419Z,48.75
2019-02-18T11:31:53.257Z,48.61
2019-02-18T11:34:24.928Z,48.52
2019-02-18T11:36:56.595Z,48.48
2019-02-18T11:39:28.820Z,48.34
2019-02-18T11:42:00.486Z,48.19
2019-02-18T11:44:32.930Z,48.01
2019-02-18T11:47:04.589Z,47.84
2019-02-18T11:49:36.453Z,47.75
2019-02-18T11:52:09.562Z,47.62
2019-02-18T11:54:41.238Z,47.37
2019-02-18T11:57:12.876Z,47.38
2019-02-18T11:59:45.283Z,47.33
2019-02-18T12:02:17.080Z,47.17
2019-02-18T12:04:50.305Z,47.08
2019-02-18T12:07:21.961Z,46.92
2019-02-18T12:09:53.727Z,46.68
2019-02-18T12:12:25.573Z,46.68
2019-02-18T12:14:57.915Z,46.63
2019-02-18T12:17:30.138Z,46.52
2019-02-18T12:20:01.907Z,46.38
2019-02-18T12:22:37.747Z,46.30
2019-02-18T12:25:09.510Z,46.18
2019-02-18T12:27:41.238Z,46.14
2019-02-18T12:30:15.224Z,45.89
2019-02-18T12:32:48.144Z,45.81
2019-02-18T12:35:30.219Z,45.59
2019-02-18T12:37:55.628Z,45.45
2019-02-18T12:40:26.768Z,45.39
2019-02-18T12:42:58.560Z,45.32
2019-02-18T12:45:30.629Z,45.22
2019-02-18T12:48:02.354Z,45.14
2019-02-18T12:50:34.026Z,45.06
2019-02-18T12:53:05.684Z,44.98
2019-02-18T12:55:37.428Z,44.92
2019-02-18T12:58:09.254Z,44.89
2019-02-18T13:00:41.321Z,44.81
2019-02-18T13:03:13.660Z,44.74
2019-02-18T13:05:45.729Z,44.66
2019-02-18T13:08:17.371Z,44.62
2019-02-18T13:10:50.011Z,44.54
2019-02-18T13:13:21.788Z,44.42
2019-02-18T13:15:54.674Z,44.39
2019-02-18T13:18:26.864Z,44.27
2019-02-18T13:20:58.503Z,44.21
2019-02-18T13:23:30.232Z,44.14
2019-02-18T13:26:01.845Z,41.43
2019-02-18T13:28:34.632Z,42.68
2019-02-18T13:31:06.312Z,43.01
2019-02-18T13:33:38.928Z,43.13
2019-02-18T13:36:16.034Z,43.19
2019-02-18T13:38:48.561Z,43.30
2019-02-18T13:41:20.578Z,43.29
2019-02-18T13:43:52.267Z,43.25
2019-02-18T13:46:23.915Z,43.25
2019-02-18T13:48:57.810Z,43.14
2019-02-18T13:51:29.440Z,42.77
2019-02-18T13:54:01.182Z,42.81
2019-02-18T13:56:33.267Z,42.86
2019-02-18T13:59:04.928Z,42.73
2019-02-18T14:01:36.616Z,42.65
2019-02-18T14:04:09.186Z,42.54
2019-02-18T14:06:40.877Z,42.35
2019-02-18T14:09:12.849Z,42.40
2019-02-18T14:11:44.738Z,42.35
2019-02-18T14:14:16.412Z,42.27
2019-02-18T14:16:48.853Z,42.16
2019-02-18T14:19:21.355Z,41.97
2019-02-18T14:21:53.525Z,41.76
2019-02-18T14:24:25.350Z,41.81
2019-02-18T14:26:59.085Z,41.85
2019-02-18T14:29:30.892Z,41.87
2019-02-18T14:32:02.657Z,41.75
2019-02-18T14:34:36.571Z,41.48
2019-02-18T14:37:08.613Z,41.41
2019-02-18T14:39:40.332Z,41.51
2019-02-18T14:42:12.113Z,41.48
2019-02-18T14:44:44.308Z,41.44
2019-02-18T14:47:16.040Z,41.33
2019-02-18T14:49:47.737Z,41.24
2019-02-18T14:52:20.487Z,40.99
2019-02-18T14:54:52.143Z,41.15
2019-02-18T14:57:24.571Z,41.07
2019-02-18T14:59:56.217Z,41.05
2019-02-18T15:02:28.370Z,41.11
2019-02-18T15:05:00.148Z,41.13
2019-02-18T15:07:32.613Z,41.19
2019-02-18T15:10:04.710Z,41.11
2019-02-18T15:12:37.049Z,41.14
2019-02-18T15:15:08.816Z,41.08
2019-02-18T15:17:40.672Z,41.14
2019-02-18T15:20:12.428Z,41.19
2019-02-18T15:22:45.306Z,41.21
2019-02-18T15:25:17.022Z,41.23
2019-02-18T15:27:48.791Z,41.24
2019-02-18T15:30:20.714Z,41.26
2019-02-18T15:32:52.454Z,41.19
2019-02-18T15:35:24.238Z,41.20
2019-02-18T15:37:56.751Z,41.15
2019-02-18T15:40:28.833Z,41.20
2019-02-18T15:43:00.937Z,41.15
2019-02-18T15:45:32.786Z,41.13
2019-02-18T15:48:04.614Z,41.08
2019-02-18T15:50:36.474Z,41.06
2019-02-18T15:53:08.850Z,41.02
2019-02-18T15:55:41.955Z,41.02
2019-02-18T15:58:14.000Z,41.04
2019-02-18T16:00:45.735Z,41.02
2019-02-18T16:03:17.405Z,41.04
2019-02-18T16:05:49.075Z,41.03
2019-02-18T16:08:21.421Z,41.03
2019-02-18T16:10:53.459Z,41.04
2019-02-18T16:13:25.434Z,41.10
2019-02-18T16:15:57.236Z,41.12
2019-02-18T16:18:29.197Z,41.17
2019-02-18T16:21:00.896Z,41.17
2019-02-18T16:23:33.074Z,41.19
2019-02-18T16:26:05.506Z,41.20
2019-02-18T16:28:37.187Z,41.19
2019-02-18T16:31:08.906Z,41.16
2019-02-18T16:33:40.653Z,41.17
2019-02-18T16:36:12.355Z,41.33
2019-02-18T16:38:44.005Z,41.43
2019-02-18T16:41:16.300Z,41.52
2019-02-18T16:43:48.064Z,41.55
2019-02-18T16:46:20.338Z,41.56
2019-02-18T16:48:52.298Z,41.61
2019-02-18T16:51:23.996Z,41.69
2019-02-18T16:53:55.770Z,41.77
2019-02-18T16:56:28.387Z,41.87
2019-02-18T16:59:00.304Z,41.94
2019-02-18T17:01:32.314Z,41.99
2019-02-18T17:04:03.990Z,42.15
2019-02-18T17:06:35.693Z,42.24
2019-02-18T17:09:14.757Z,42.33
2019-02-18T17:11:47.103Z,42.40
2019-02-18T17:14:18.958Z,42.46
2019-02-18T17:16:50.663Z,42.49
2019-02-18T17:19:22.618Z,42.49
2019-02-18T17:21:54.434Z,42.53
2019-02-18T17:24:26.534Z,42.56
2019-02-18T17:26:58.896Z,42.60
2019-02-18T17:29:30.834Z,42.63
2019-02-18T17:32:02.534Z,42.66
2019-02-18T17:34:34.217Z,42.74
2019-02-18T17:37:06.270Z,42.75
2019-02-18T17:39:37.963Z,42.78
2019-02-18T17:42:10.384Z,42.82
2019-02-18T17:44:42.254Z,42.91
2019-02-18T17:47:14.349Z,42.97
2019-02-18T17:49:46.043Z,43.01
2019-02-18T17:52:17.956Z,43.00
2019-02-18T17:54:49.691Z,43.03
2019-02-18T17:57:21.884Z,43.06
2019-02-18T17:59:53.736Z,43.09
2019-02-18T18:02:25.654Z,43.21
2019-02-18T18:04:57.338Z,43.31
2019-02-18T18:07:29.123Z,43.50
2019-02-18T18:10:00.809Z,43.67
2019-02-18T18:12:33.349Z,43.76
2019-02-18T18:15:05.442Z,43.85
2019-02-18T18:17:37.776Z,43.90
2019-02-18T18:20:10.677Z,43.91
2019-02-18T18:22:42.357Z,43.92
2019-02-18T18:25:14.368Z,43.95
2019-02-18T18:27:46.776Z,43.95
2019-02-18T18:30:18.644Z,43.95
2019-02-18T18:32:50.718Z,43.98
2019-02-18T18:35:22.546Z,44.08
2019-02-18T18:37:57.588Z,44.24
2019-02-18T18:40:32.046Z,44.32
2019-02-18T18:43:04.639Z,44.36
2019-02-18T18:45:37.426Z,44.39
2019-02-18T18:48:09.148Z,44.39
2019-02-18T18:50:41.019Z,44.42
2019-02-18T18:53:12.701Z,44.44
2019-02-18T18:55:46.399Z,44.45
2019-02-18T18:58:18.178Z,44.54
2019-02-18T19:00:50.723Z,44.64
2019-02-18T19:03:22.514Z,44.75
2019-02-18T19:05:54.383Z,44.85
2019-02-18T19:08:28.033Z,44.95
2019-02-18T19:10:59.849Z,45.03
2019-02-18T19:13:31.863Z,45.07
2019-02-18T19:16:04.100Z,45.11
2019-02-18T19:18:36.052Z,45.13
2019-02-18T19:21:08.227Z,45.11
2019-02-18T19:23:40.393Z,45.09
2019-02-18T19:26:13.560Z,45.07
2019-02-18T19:28:46.529Z,45.07
2019-02-18T19:31:18.533Z,45.10
2019-02-18T19:33:51.382Z,45.18
2019-02-18T19:36:23.333Z,45.28
2019-02-18T19:38:55.338Z,45.36
2019-02-18T19:46:29.732Z,45.42
2019-02-18T19:49:01.820Z,45.45
2019-02-18T19:51:34.893Z,45.48
2019-02-18T19:54:07.243Z,45.47
2019-02-18T19:56:39.372Z,45.42
2019-02-18T19:59:11.478Z,45.40
2019-02-18T20:01:44.901Z,45.39
2019-02-18T20:04:16.918Z,45.38
2019-02-18T20:06:49.310Z,45.43
2019-02-18T20:09:21.114Z,45.48
2019-02-18T20:11:53.197Z,45.56
2019-02-18T20:14:25.072Z,45.62
2019-02-18T20:16:57.653Z,45.70
2019-02-18T20:19:29.776Z,45.80
2019-02-18T20:22:01.781Z,45.88
2019-02-18T20:24:33.877Z,45.94
2019-02-18T20:27:05.968Z,45.96
2019-02-18T20:29:37.771Z,46.05
2019-02-18T20:32:11.630Z,46.13
2019-02-18T20:34:44.954Z,46.23
2019-02-18T20:37:17.390Z,46.26
2019-02-18T20:39:49.216Z,46.27
2019-02-18T20:42:20.991Z,46.29
2019-02-18T20:44:52.829Z,46.30
2019-02-18T20:47:25.453Z,46.32
2019-02-18T20:49:57.709Z,46.35
2019-02-18T20:52:30.320Z,46.39
2019-02-18T20:55:02.039Z,46.41
2019-02-18T20:57:33.908Z,46.46
2019-02-18T21:00:08.322Z,46.47
2019-02-18T21:02:40.120Z,46.46
2019-02-18T21:05:12.052Z,46.53
2019-02-18T21:07:44.443Z,46.62
2019-02-18T21:10:18.045Z,46.69
2019-02-18T21:12:51.265Z,46.71
2019-02-18T21:15:23.037Z,46.72
2019-02-18T21:17:54.986Z,46.73
2019-02-18T21:20:26.714Z,46.72
2019-02-18T21:22:58.489Z,46.75
2019-02-18T21:25:30.733Z,46.82
2019-02-18T21:28:02.409Z,46.95
2019-02-18T21:30:34.225Z,47.05
2019-02-18T21:33:05.916Z,47.16
2019-02-18T21:35:37.811Z,47.26
2019-02-18T21:38:09.772Z,47.32
2019-02-18T21:40:41.903Z,47.34
2019-02-18T21:43:13.672Z,47.36
2019-02-18T21:45:45.492Z,47.39
2019-02-18T21:48:18.719Z,47.47
2019-02-18T21:50:51.009Z,47.49
2019-02-18T21:53:22.797Z,47.51
2019-02-18T21:55:54.816Z,47.52
2019-02-18T21:58:26.905Z,47.51
2019-02-18T22:00:58.675Z,47.51
2019-02-18T22:03:30.431Z,47.50
2019-02-18T22:06:02.107Z,47.54
2019-02-18T22:08:33.797Z,47.61
2019-02-18T22:11:07.787Z,47.64
2019-02-18T22:13:39.672Z,47.71
2019-02-18T22:16:11.384Z,47.76
2019-02-18T22:18:43.380Z,47.84
2019-02-18T22:21:15.552Z,47.89
2019-02-18T22:23:47.671Z,47.94
2019-02-18T22:26:19.698Z,47.99
2019-02-18T22:28:51.355Z,48.01
2019-02-18T22:31:23.164Z,48.01
2019-02-18T22:33:56.496Z,48.03
2019-02-18T22:36:30.618Z,48.04
2019-02-18T22:39:07.560Z,48.05
2019-02-18T22:41:40.437Z,48.03
2019-02-18T22:44:13.458Z,48.07
2019-02-18T22:46:45.202Z,48.09
2019-02-18T22:49:19.630Z,48.10
2019-02-18T22:51:51.855Z,48.18
2019-02-18T22:54:25.177Z,48.23
2019-02-18T22:56:57.133Z,48.26
2019-02-18T22:59:29.809Z,48.28
2019-02-18T23:02:01.540Z,48.29
2019-02-18T23:04:33.430Z,48.32
2019-02-18T23:07:05.186Z,48.37
2019-02-18T23:09:37.120Z,48.49
2019-02-18T23:12:13.620Z,48.54
2019-02-18T23:14:50.526Z,48.67
2019-02-18T23:17:19.245Z,48.75
2019-02-18T23:19:51.052Z,48.83
2019-02-18T23:22:22.671Z,48.89
2019-02-18T23:24:56.493Z,48.97
2019-02-18T23:27:28.274Z,49.00
2019-02-18T23:30:00.655Z,49.03
2019-02-18T23:32:32.306Z,49.06
2019-02-18T23:35:04.408Z,49.08
2019-02-18T23:37:36.567Z,49.09
2019-02-18T23:40:10.643Z,49.11
2019-02-18T23:42:42.425Z,49.17
2019-02-18T23:45:14.446Z,49.18
2019-02-18T23:47:46.068Z,49.24
2019-02-18T23:50:17.703Z,49.25
2019-02-18T23:52:49.724Z,49.27
2019-02-18T23:55:21.392Z,49.28
2019-02-18T23:57:53.048Z,49.29
